Terminal Aerodrome Forecast
Issued by NWS Wilmington, NC

Home | Current Version | Previous Version | Text Only | Print | Product List | Glossary On
Versions: 1 2 3 4 5 6 7 8 9 10 11 12 13 14 15 16 17 18 19 20 21 22 23
000
FTUS42 KILM 220500
TAFILM
TAF
KILM 220523Z 2206/2306 00000KT 5SM BR BKN200
      TEMPO 2209/2212 2SM BR SCT003
     FM221300 28007KT P6SM SCT060
     FM221900 23009KT P6SM VCTS FEW030CB SCT050
     FM230200 22004KT P6SM VCTS FEW035CB BKN060=

USA.gov is the U.S. government's official web portal to all federal, state and local government web resources and services.